Time;durP1;ratioP1;P1;durP2;ratioP2;P2;SDS_P1;SDS_P2;PMS_P1;PMS_P2;Temp;Humidity;BMP_temperature;BMP_pressure;BME280_temperature;BME280_humidity;BME280_pressure;Samples;Min_cycle;Max_cycle;Signal;HPM_P1;HPM_P2
2022/05/15 00:00:57;;;;;;;20.70;7.95;;;;;;;;;;5004736;28;20403;-86
2022/05/15 00:03:37;;;;;;;16.58;7.90;;;;;;;;;;5005733;28;20108;-85
2022/05/15 00:06:05;;;;;;;15.48;7.13;;;;;;;;;;5008287;28;20077;-88
2022/05/15 00:08:35;;;;;;;14.85;7.65;;;;;;;;;;5009823;28;20422;-89
2022/05/15 00:11:03;;;;;;;17.40;7.70;;;;;;;;;;5009276;28;20104;-88
2022/05/15 00:13:31;;;;;;;16.58;7.75;;;;;;;;;;5009331;28;20482;-89
2022/05/15 00:15:59;;;;;;;17.48;7.25;;;;;;;;;;5010295;28;20054;-88
2022/05/15 00:18:27;;;;;;;18.58;6.97;;;;;;;;;;5010252;28;20137;-88
2022/05/15 00:20:55;;;;;;;15.00;6.95;;;;;;;;;;5009365;28;20553;-88
2022/05/15 00:23:24;;;;;;;16.48;6.65;;;;;;;;;;5013070;28;20141;-93
2022/05/15 00:25:53;;;;;;;16.60;6.20;;;;;;;;;;5015178;28;20464;-93
2022/05/15 00:28:21;;;;;;;14.20;6.40;;;;;;;;;;4996703;28;20097;-93
2022/05/15 00:30:49;;;;;;;13.85;5.72;;;;;;;;;;4995096;28;20053;-93
2022/05/15 00:33:18;;;;;;;13.00;5.78;;;;;;;;;;4990842;28;20050;-94
2022/05/15 00:35:47;;;;;;;13.05;5.60;;;;;;;;;;4997542;28;20133;-93
2022/05/15 00:38:15;;;;;;;10.90;6.00;;;;;;;;;;5014672;28;20041;-93
2022/05/15 00:40:45;;;;;;;13.50;6.30;;;;;;;;;;5006230;28;20038;-94
2022/05/15 00:43:34;;;;;;;12.07;4.97;;;;;;;;;;5008814;28;20064;-93
2022/05/15 00:46:05;;;;;;;11.57;5.15;;;;;;;;;;4995305;28;20058;-91
2022/05/15 00:48:33;;;;;;;12.25;4.90;;;;;;;;;;5012810;28;20481;-91
2022/05/15 00:51:08;;;;;;;16.67;5.50;;;;;;;;;;5010026;28;20072;-91
2022/05/15 00:53:36;;;;;;;11.65;5.32;;;;;;;;;;5013269;28;20067;-91
2022/05/15 00:56:03;;;;;;;13.45;4.75;;;;;;;;;;5013163;28;20054;-91
2022/05/15 00:58:35;;;;;;;10.80;5.28;;;;;;;;;;5011036;28;20128;-91
2022/05/15 01:01:06;;;;;;;19.15;5.30;;;;;;;;;;4994338;28;20060;-92
2022/05/15 01:03:33;;;;;;;15.73;4.47;;;;;;;;;;4994972;28;20058;-91
2022/05/15 01:06:01;;;;;;;11.13;4.80;;;;;;;;;;5005274;28;20042;-91
2022/05/15 01:08:31;;;;;;;13.27;5.30;;;;;;;;;;5010766;28;20554;-91
2022/05/15 01:11:08;;;;;;;13.57;4.85;;;;;;;;;;4995307;28;20045;-91
2022/05/15 01:13:36;;;;;;;13.55;5.07;;;;;;;;;;4991404;28;20062;-91
2022/05/15 01:16:05;;;;;;;14.75;5.78;;;;;;;;;;4994479;28;20585;-91
2022/05/15 01:18:36;;;;;;;15.68;4.75;;;;;;;;;;5005936;28;20057;-91
2022/05/15 01:21:18;;;;;;;15.40;4.75;;;;;;;;;;4990128;28;20062;-92
2022/05/15 01:23:47;;;;;;;10.32;4.53;;;;;;;;;;4975524;28;20145;-91
2022/05/15 01:26:15;;;;;;;12.93;4.43;;;;;;;;;;5010877;28;20053;-91
2022/05/15 01:28:45;;;;;;;12.32;5.30;;;;;;;;;;4991849;28;20089;-85
2022/05/15 01:31:14;;;;;;;11.30;5.15;;;;;;;;;;5000790;28;20085;-85
2022/05/15 01:33:44;;;;;;;10.38;5.05;;;;;;;;;;5006862;28;20074;-92
2022/05/15 01:36:13;;;;;;;17.50;5.05;;;;;;;;;;4993414;28;20147;-92
2022/05/15 01:38:41;;;;;;;11.45;4.88;;;;;;;;;;4995259;28;20080;-92
2022/05/15 01:41:12;;;;;;;9.90;4.63;;;;;;;;;;4999351;28;20057;-91
2022/05/15 01:43:43;;;;;;;11.13;4.45;;;;;;;;;;5007712;28;20084;-92
2022/05/15 01:46:11;;;;;;;9.82;4.28;;;;;;;;;;5011382;28;20177;-91
2022/05/15 01:48:39;;;;;;;9.93;4.43;;;;;;;;;;4995356;28;20948;-91
2022/05/15 01:51:09;;;;;;;14.00;4.65;;;;;;;;;;4996177;28;20141;-92
2022/05/15 01:53:37;;;;;;;12.82;4.15;;;;;;;;;;4994785;28;20184;-92
2022/05/15 01:56:05;;;;;;;12.60;4.22;;;;;;;;;;5006323;28;20062;-92
2022/05/15 01:58:33;;;;;;;9.57;4.13;;;;;;;;;;5006056;28;20079;-92
2022/05/15 02:01:03;;;;;;;10.25;4.43;;;;;;;;;;5009354;28;20049;-92
2022/05/15 02:03:31;;;;;;;13.52;4.40;;;;;;;;;;4985594;28;20201;-92
2022/05/15 02:05:59;;;;;;;10.68;4.00;;;;;;;;;;4995381;28;21840;-92
2022/05/15 02:08:31;;;;;;;10.25;4.03;;;;;;;;;;4988519;28;20080;-93
2022/05/15 02:10:59;;;;;;;11.32;4.35;;;;;;;;;;4986694;28;20142;-93
2022/05/15 02:13:27;;;;;;;10.68;4.35;;;;;;;;;;5011433;28;20863;-93
2022/05/15 02:15:55;;;;;;;8.43;4.20;;;;;;;;;;5013267;28;20077;-93
2022/05/15 02:18:23;;;;;;;12.02;3.95;;;;;;;;;;5012249;28;20061;-92
2022/05/15 02:20:51;;;;;;;8.38;4.30;;;;;;;;;;4994299;28;20117;-93
2022/05/15 02:23:19;;;;;;;13.63;4.65;;;;;;;;;;5011960;28;20057;-93
2022/05/15 02:25:47;;;;;;;15.75;5.43;;;;;;;;;;5011144;28;20041;-93
2022/05/15 02:28:15;;;;;;;15.75;5.60;;;;;;;;;;4993314;28;20050;-92
2022/05/15 02:30:43;;;;;;;13.32;4.68;;;;;;;;;;4993323;28;20545;-93
2022/05/15 02:33:11;;;;;;;13.52;4.93;;;;;;;;;;5011243;28;20058;-93
2022/05/15 02:35:39;;;;;;;13.57;4.55;;;;;;;;;;5009945;28;20100;-93
2022/05/15 02:38:07;;;;;;;10.98;4.72;;;;;;;;;;5005043;28;20057;-92
2022/05/15 02:40:36;;;;;;;11.80;4.70;;;;;;;;;;4993948;28;20049;-93
2022/05/15 02:43:03;;;;;;;10.30;5.00;;;;;;;;;;5013140;28;20054;-93
2022/05/15 02:45:31;;;;;;;9.07;4.55;;;;;;;;;;5010681;28;20058;-93
2022/05/15 02:47:59;;;;;;;12.27;4.63;;;;;;;;;;5004131;28;20562;-92
2022/05/15 02:53:13;;;;;;;10.45;4.90;;;;;;;;;;5011488;28;20132;-93
2022/05/15 02:55:41;;;;;;;13.23;4.75;;;;;;;;;;5008000;28;20050;-93
2022/05/15 02:58:09;;;;;;;10.35;4.47;;;;;;;;;;4993435;28;20848;-92
2022/05/15 03:00:37;;;;;;;10.57;4.70;;;;;;;;;;5011382;28;20053;-93
2022/05/15 03:03:05;;;;;;;8.18;4.63;;;;;;;;;;5008817;28;20058;-92
2022/05/15 03:05:33;;;;;;;8.20;4.50;;;;;;;;;;5012185;28;20045;-92
2022/05/15 03:08:01;;;;;;;10.02;4.20;;;;;;;;;;4993778;28;20061;-92
2022/05/15 03:10:29;;;;;;;12.75;4.93;;;;;;;;;;4993241;28;20069;-92
2022/05/15 03:12:57;;;;;;;12.98;4.40;;;;;;;;;;5009788;28;20042;-92
2022/05/15 03:15:25;;;;;;;12.35;4.38;;;;;;;;;;5009709;28;20042;-92
2022/05/15 03:17:53;;;;;;;12.63;4.65;;;;;;;;;;4994592;28;20046;-92
2022/05/15 03:20:27;;;;;;;9.82;4.35;;;;;;;;;;5010485;28;20918;-92
2022/05/15 03:22:56;;;;;;;12.02;4.45;;;;;;;;;;5011121;28;20096;-92
2022/05/15 03:25:26;;;;;;;9.02;4.53;;;;;;;;;;4994114;28;20097;-92
2022/05/15 03:27:54;;;;;;;9.50;4.90;;;;;;;;;;5008033;28;20841;-92
2022/05/15 03:30:21;;;;;;;11.43;4.82;;;;;;;;;;5009132;28;20069;-92
2022/05/15 03:32:49;;;;;;;11.18;4.55;;;;;;;;;;5011623;28;20054;-92
2022/05/15 03:35:17;;;;;;;9.13;4.50;;;;;;;;;;5010818;28;20624;-93
2022/05/15 03:37:45;;;;;;;15.68;4.60;;;;;;;;;;5011562;28;20120;-93
2022/05/15 03:40:15;;;;;;;9.43;4.45;;;;;;;;;;4992037;28;20041;-93
2022/05/15 03:42:43;;;;;;;10.35;3.90;;;;;;;;;;5016474;28;20042;-93
2022/05/15 03:45:11;;;;;;;10.55;4.40;;;;;;;;;;5004949;28;20060;-93
2022/05/15 03:47:51;;;;;;;12.95;4.25;;;;;;;;;;5013936;28;20049;-93
2022/05/15 03:50:22;;;;;;;8.52;3.88;;;;;;;;;;4966189;28;20053;-93
2022/05/15 03:52:49;;;;;;;9.85;4.47;;;;;;;;;;4997085;28;20080;-92
2022/05/15 03:55:18;;;;;;;12.32;4.47;;;;;;;;;;4990558;28;20050;-92
2022/05/15 03:57:45;;;;;;;12.10;4.97;;;;;;;;;;5008061;28;20042;-92
2022/05/15 04:00:15;;;;;;;10.60;4.60;;;;;;;;;;5013285;28;20041;-92
2022/05/15 04:02:43;;;;;;;9.82;4.63;;;;;;;;;;5015124;28;20057;-94
2022/05/15 04:05:11;;;;;;;9.02;4.32;;;;;;;;;;4999368;28;20050;-93
2022/05/15 04:07:44;;;;;;;9.85;4.28;;;;;;;;;;5007969;28;20046;-93
2022/05/15 04:10:14;;;;;;;11.27;4.70;;;;;;;;;;5016056;28;20057;-94
2022/05/15 04:12:43;;;;;;;11.18;4.22;;;;;;;;;;5000844;28;20056;-93
2022/05/15 04:15:14;;;;;;;9.95;4.53;;;;;;;;;;5000011;28;20061;-93
2022/05/15 04:17:46;;;;;;;11.18;4.05;;;;;;;;;;4994570;28;20149;-94
2022/05/15 04:20:22;;;;;;;12.23;4.38;;;;;;;;;;4977373;28;20420;-93
2022/05/15 04:22:50;;;;;;;10.93;4.47;;;;;;;;;;5014096;28;20508;-93
2022/05/15 04:25:20;;;;;;;9.68;4.13;;;;;;;;;;5013391;28;20085;-93
2022/05/15 04:27:48;;;;;;;10.43;4.20;;;;;;;;;;4995729;28;20184;-93
2022/05/15 04:30:19;;;;;;;12.05;4.63;;;;;;;;;;5012353;28;20060;-93
2022/05/15 04:32:47;;;;;;;13.20;4.70;;;;;;;;;;5001876;28;20050;-94
2022/05/15 04:35:15;;;;;;;10.63;4.50;;;;;;;;;;4999792;28;20077;-94
2022/05/15 04:37:43;;;;;;;15.70;4.88;;;;;;;;;;4997924;28;20041;-93
2022/05/15 04:40:12;;;;;;;9.85;4.70;;;;;;;;;;5016130;28;20050;-93
2022/05/15 04:42:41;;;;;;;10.02;4.72;;;;;;;;;;5017813;28;20077;-94
2022/05/15 04:45:10;;;;;;;11.93;4.35;;;;;;;;;;5001448;28;20050;-94
2022/05/15 04:47:37;;;;;;;10.43;4.10;;;;;;;;;;5014516;28;20544;-94
2022/05/15 04:50:06;;;;;;;11.75;4.75;;;;;;;;;;5005869;28;20050;-93
2022/05/15 04:52:33;;;;;;;9.88;4.50;;;;;;;;;;4998637;28;20061;-92
2022/05/15 04:55:02;;;;;;;9.77;4.85;;;;;;;;;;5012965;28;20411;-92
2022/05/15 04:57:29;;;;;;;12.52;5.18;;;;;;;;;;4995024;28;20499;-92
2022/05/15 04:59:57;;;;;;;14.55;4.93;;;;;;;;;;5006979;28;20042;-92
2022/05/15 05:02:25;;;;;;;12.88;4.95;;;;;;;;;;4994089;28;20046;-91
2022/05/15 05:04:53;;;;;;;14.88;5.80;;;;;;;;;;5014409;28;20080;-92
2022/05/15 05:07:21;;;;;;;12.15;5.32;;;;;;;;;;5012020;28;20049;-92
2022/05/15 05:09:49;;;;;;;15.57;5.20;;;;;;;;;;4995275;28;20093;-92
2022/05/15 05:12:17;;;;;;;13.02;5.70;;;;;;;;;;5012730;28;20136;-92
2022/05/15 05:14:45;;;;;;;15.63;5.35;;;;;;;;;;5014415;28;20054;-92
2022/05/15 05:17:14;;;;;;;15.20;5.70;;;;;;;;;;4993204;28;20091;-92
2022/05/15 05:19:42;;;;;;;12.48;5.30;;;;;;;;;;5011972;28;20054;-92
2022/05/15 05:22:09;;;;;;;15.85;5.70;;;;;;;;;;5012744;28;20089;-91
2022/05/15 05:24:38;;;;;;;14.35;5.50;;;;;;;;;;5009376;28;20045;-92
2022/05/15 05:27:11;;;;;;;11.50;4.90;;;;;;;;;;5013076;28;20108;-92
2022/05/15 05:29:40;;;;;;;11.60;5.70;;;;;;;;;;5013154;28;20057;-91
2022/05/15 05:32:08;;;;;;;10.48;5.10;;;;;;;;;;5015256;28;20139;-91
2022/05/15 05:34:35;;;;;;;12.88;5.72;;;;;;;;;;5015625;28;20531;-92
2022/05/15 05:37:03;;;;;;;11.48;5.53;;;;;;;;;;5014336;28;20050;-92
2022/05/15 05:39:31;;;;;;;11.02;5.75;;;;;;;;;;5009459;28;20138;-92
2022/05/15 05:41:59;;;;;;;15.45;6.07;;;;;;;;;;5013194;28;20149;-91
2022/05/15 05:44:27;;;;;;;17.65;5.75;;;;;;;;;;5011459;28;20120;-92
2022/05/15 05:46:55;;;;;;;20.58;6.60;;;;;;;;;;5012522;28;20050;-92
2022/05/15 05:49:23;;;;;;;18.05;6.32;;;;;;;;;;4994671;28;20507;-92
2022/05/15 05:51:51;;;;;;;18.85;5.85;;;;;;;;;;5006742;28;20653;-92
2022/05/15 05:54:19;;;;;;;19.35;5.68;;;;;;;;;;5008740;28;20058;-92
2022/05/15 05:56:47;;;;;;;18.27;5.90;;;;;;;;;;5011164;28;20046;-92
2022/05/15 05:59:15;;;;;;;12.48;5.47;;;;;;;;;;5011854;28;20045;-92
2022/05/15 06:01:43;;;;;;;20.67;5.10;;;;;;;;;;4996784;28;20377;-92
2022/05/15 06:06:57;;;;;;;12.77;3.72;;;;;;;;;;5011729;28;20777;-93
2022/05/15 06:09:25;;;;;;;13.88;4.40;;;;;;;;;;5010259;28;20068;-93
2022/05/15 06:11:53;;;;;;;18.45;4.07;;;;;;;;;;5013407;28;20081;-93
2022/05/15 06:14:21;;;;;;;7.78;3.72;;;;;;;;;;4986063;28;20345;-93
2022/05/15 06:16:49;;;;;;;9.95;2.58;;;;;;;;;;5009060;28;20049;-93
2022/05/15 06:19:17;;;;;;;7.57;2.85;;;;;;;;;;5010728;28;20049;-93
2022/05/15 06:21:45;;;;;;;11.43;3.35;;;;;;;;;;5013535;28;20468;-92
2022/05/15 06:24:13;;;;;;;11.80;2.47;;;;;;;;;;4994578;28;20054;-92
2022/05/15 06:26:41;;;;;;;11.00;2.90;;;;;;;;;;5013043;28;20045;-92
2022/05/15 06:29:09;;;;;;;8.65;2.78;;;;;;;;;;5012070;28;20041;-92
2022/05/15 06:31:37;;;;;;;12.57;2.88;;;;;;;;;;5015115;28;20173;-93
2022/05/15 06:34:05;;;;;;;9.95;3.08;;;;;;;;;;5016185;28;20050;-92
2022/05/15 06:36:33;;;;;;;11.80;2.70;;;;;;;;;;4999472;28;20042;-92
2022/05/15 06:39:03;;;;;;;12.85;2.97;;;;;;;;;;5007850;28;20903;-92
2022/05/15 06:41:31;;;;;;;8.90;2.38;;;;;;;;;;5011611;28;20042;-92
2022/05/15 06:44:00;;;;;;;8.70;2.33;;;;;;;;;;4994167;28;20133;-92
2022/05/15 06:46:28;;;;;;;11.52;2.63;;;;;;;;;;5006439;28;20130;-92
2022/05/15 06:48:55;;;;;;;8.32;2.78;;;;;;;;;;5006390;28;20050;-92
2022/05/15 06:51:23;;;;;;;7.53;2.17;;;;;;;;;;4990708;28;20495;-92
2022/05/15 06:53:51;;;;;;;4.22;1.42;;;;;;;;;;4994728;28;20077;-92
2022/05/15 06:59:05;;;;;;;3.63;1.63;;;;;;;;;;5010465;28;20050;-92
2022/05/15 07:01:33;;;;;;;3.05;0.82;;;;;;;;;;5006626;28;20122;-91
2022/05/15 07:04:01;;;;;;;5.90;1.55;;;;;;;;;;4999484;28;20042;-92
2022/05/15 07:06:30;;;;;;;3.85;1.10;;;;;;;;;;4993309;28;20057;-92
2022/05/15 07:08:57;;;;;;;4.35;1.20;;;;;;;;;;5012549;28;20050;-92
2022/05/15 07:11:25;;;;;;;4.38;1.38;;;;;;;;;;5005008;28;20484;-92
2022/05/15 07:13:53;;;;;;;6.45;1.40;;;;;;;;;;5012032;28;20053;-92
2022/05/15 07:16:21;;;;;;;2.72;1.23;;;;;;;;;;4994772;28;20046;-91
2022/05/15 07:18:50;;;;;;;4.45;1.23;;;;;;;;;;5009510;28;20093;-92
2022/05/15 07:21:20;;;;;;;3.70;1.00;;;;;;;;;;5016329;28;20545;-92
2022/05/15 07:23:49;;;;;;;5.00;1.25;;;;;;;;;;5011631;28;20088;-91
2022/05/15 07:26:17;;;;;;;3.78;1.30;;;;;;;;;;4997465;28;20038;-92
2022/05/15 07:28:50;;;;;;;2.67;1.05;;;;;;;;;;5018365;28;20037;-94
2022/05/15 07:31:19;;;;;;;5.60;1.55;;;;;;;;;;5028727;28;20041;-94
2022/05/15 07:33:49;;;;;;;2.85;1.10;;;;;;;;;;5012219;23;20046;-85
2022/05/15 07:36:18;;;;;;;5.45;1.30;;;;;;;;;;4987249;28;20475;-86
2022/05/15 07:38:45;;;;;;;5.28;1.10;;;;;;;;;;4997242;28;20550;-85
2022/05/15 07:41:14;;;;;;;4.32;1.15;;;;;;;;;;4973299;28;20046;-86
2022/05/15 07:43:41;;;;;;;3.72;1.05;;;;;;;;;;4978669;28;20129;-85
2022/05/15 07:46:09;;;;;;;3.80;1.40;;;;;;;;;;5010187;28;20114;-85
2022/05/15 07:48:37;;;;;;;3.65;1.00;;;;;;;;;;5001021;28;20053;-85
2022/05/15 07:51:05;;;;;;;4.05;1.10;;;;;;;;;;4995248;28;20050;-85
2022/05/15 07:53:33;;;;;;;2.28;0.93;;;;;;;;;;4985629;28;20046;-84
2022/05/15 07:56:09;;;;;;;4.50;0.88;;;;;;;;;;4984969;28;20110;-84
2022/05/15 07:58:38;;;;;;;4.55;1.10;;;;;;;;;;4995356;28;20650;-85
2022/05/15 08:01:06;;;;;;;2.53;0.80;;;;;;;;;;4968230;28;20070;-85
2022/05/15 08:03:39;;;;;;;1.90;0.73;;;;;;;;;;5000935;28;20121;-86
2022/05/15 08:08:53;;;;;;;2.67;0.80;;;;;;;;;;4996787;28;20477;-85
2022/05/15 08:11:26;;;;;;;3.15;1.08;;;;;;;;;;4969103;28;20057;-85
2022/05/15 08:13:55;;;;;;;2.72;0.75;;;;;;;;;;4963235;28;20046;-85
2022/05/15 08:16:24;;;;;;;2.35;0.73;;;;;;;;;;5002263;28;20050;-85
2022/05/15 08:24:27;;;;;;;2.60;0.80;;;;;;;;;;4991324;28;20557;-87
2022/05/15 08:26:56;;;;;;;2.53;0.80;;;;;;;;;;4977760;28;20126;-87
2022/05/15 08:29:23;;;;;;;1.58;0.73;;;;;;;;;;5002894;28;20416;-87
2022/05/15 08:31:51;;;;;;;1.70;0.63;;;;;;;;;;5002338;28;20046;-85
2022/05/15 08:34:19;;;;;;;5.75;2.30;;;;;;;;;;4982477;28;20074;-85
2022/05/15 08:36:47;;;;;;;2.17;0.75;;;;;;;;;;4983174;28;20046;-85
2022/05/15 08:39:15;;;;;;;2.65;0.80;;;;;;;;;;4955522;28;20381;-86
2022/05/15 08:42:14;;;;;;;2.22;0.70;;;;;;;;;;5004401;28;20054;-86
2022/05/15 08:44:45;;;;;;;2.30;0.55;;;;;;;;;;5002639;28;20933;-86
2022/05/15 08:47:26;;;;;;;3.28;0.77;;;;;;;;;;4970966;28;20504;-85
2022/05/15 08:50:08;;;;;;;2.75;0.77;;;;;;;;;;4968658;28;20052;-87
2022/05/15 08:52:54;;;;;;;1.67;0.80;;;;;;;;;;5017911;28;20379;-88
2022/05/15 08:55:24;;;;;;;2.65;0.85;;;;;;;;;;4984679;28;20053;-88
2022/05/15 08:58:00;;;;;;;2.38;1.10;;;;;;;;;;5016325;28;20038;-87
2022/05/15 09:00:31;;;;;;;1.63;0.60;;;;;;;;;;4991624;28;20065;-86
2022/05/15 09:03:18;;;;;;;2.40;0.63;;;;;;;;;;4999627;28;20054;-86
2022/05/15 09:05:59;;;;;;;2.38;1.00;;;;;;;;;;4978877;28;20050;-88
2022/05/15 09:08:43;;;;;;;1.98;0.70;;;;;;;;;;4996945;28;20042;-88
2022/05/15 09:11:14;;;;;;;1.98;0.63;;;;;;;;;;4964032;28;20042;-87
2022/05/15 09:13:54;;;;;;;2.53;0.80;;;;;;;;;;4975349;28;20057;-87
2022/05/15 09:16:25;;;;;;;2.78;0.70;;;;;;;;;;5000720;28;20058;-87
2022/05/15 09:19:02;;;;;;;1.98;0.70;;;;;;;;;;4995893;28;20053;-86
2022/05/15 09:21:29;;;;;;;2.80;0.70;;;;;;;;;;5000263;28;20054;-87
2022/05/15 09:24:06;;;;;;;1.65;0.70;;;;;;;;;;4939184;28;20074;-87
2022/05/15 09:26:46;;;;;;;2.20;0.70;;;;;;;;;;4977885;28;20517;-87
2022/05/15 09:29:21;;;;;;;2.92;0.70;;;;;;;;;;4955035;28;20042;-87
2022/05/15 09:31:50;;;;;;;1.58;0.80;;;;;;;;;;4997569;28;20054;-87
2022/05/15 09:34:21;;;;;;;1.88;0.82;;;;;;;;;;4983111;28;20108;-87
2022/05/15 09:36:51;;;;;;;2.88;0.88;;;;;;;;;;4988171;28;20046;-87
2022/05/15 09:39:41;;;;;;;2.92;0.90;;;;;;;;;;5010932;28;20056;-87
2022/05/15 09:45:07;;;;;;;2.30;0.95;;;;;;;;;;4982796;28;20092;-87
2022/05/15 09:47:40;;;;;;;1.73;0.65;;;;;;;;;;4968280;28;20501;-86
2022/05/15 09:50:51;;;;;;;3.83;1.00;;;;;;;;;;4993758;28;20045;-87
2022/05/15 09:53:40;;;;;;;2.30;0.75;;;;;;;;;;5016335;28;20053;-87
2022/05/15 09:56:07;;;;;;;2.67;0.80;;;;;;;;;;4998761;28;20113;-86
2022/05/15 09:59:03;;;;;;;3.00;0.90;;;;;;;;;;4980918;28;20045;-87
2022/05/15 10:01:41;;;;;;;2.10;1.00;;;;;;;;;;4983325;28;20544;-86
2022/05/15 10:04:28;;;;;;;2.42;0.80;;;;;;;;;;4999586;28;20058;-86
2022/05/15 10:07:04;;;;;;;3.17;0.82;;;;;;;;;;4980060;28;20046;-87
2022/05/15 10:09:40;;;;;;;2.47;0.80;;;;;;;;;;5012345;28;20414;-88
2022/05/15 10:12:26;;;;;;;1.63;0.98;;;;;;;;;;4978918;28;20421;-87
2022/05/15 10:14:56;;;;;;;5.18;1.20;;;;;;;;;;4954794;28;20057;-87
2022/05/15 10:17:24;;;;;;;3.88;0.70;;;;;;;;;;4994203;28;20501;-87
2022/05/15 10:20:00;;;;;;;2.25;0.95;;;;;;;;;;4983917;28;20133;-87
2022/05/15 10:22:42;;;;;;;3.55;0.80;;;;;;;;;;5014103;28;20100;-87
2022/05/15 10:25:34;;;;;;;2.63;0.77;;;;;;;;;;4970994;28;20113;-88
2022/05/15 10:28:26;;;;;;;2.10;0.70;;;;;;;;;;4981078;28;20381;-87
2022/05/15 10:31:03;;;;;;;2.67;0.93;;;;;;;;;;4997880;28;20057;-87
2022/05/15 10:33:39;;;;;;;21.20;1.40;;;;;;;;;;4987582;28;20061;-88
2022/05/15 10:36:13;;;;;;;1.65;0.75;;;;;;;;;;5003285;28;20153;-88
2022/05/15 10:39:24;;;;;;;1.88;0.80;;;;;;;;;;4980979;28;20049;-85
2022/05/15 10:42:15;;;;;;;2.47;0.85;;;;;;;;;;4997151;28;20058;-85
2022/05/15 10:45:00;;;;;;;3.10;0.90;;;;;;;;;;4967847;28;20070;-88
2022/05/15 10:47:52;;;;;;;2.63;0.85;;;;;;;;;;5001025;28;20073;-89
2022/05/15 10:50:23;;;;;;;2.28;0.88;;;;;;;;;;4981145;28;20058;-88
2022/05/15 10:59:46;;;;;;;2.20;0.82;;;;;;;;;;4996481;28;20046;-88
2022/05/15 11:02:41;;;;;;;2.38;1.05;;;;;;;;;;4995871;28;20060;-87
2022/05/15 11:05:12;;;;;;;2.67;0.88;;;;;;;;;;4998961;28;20046;-89
2022/05/15 11:08:12;;;;;;;1.50;0.73;;;;;;;;;;5002779;28;20049;-88
2022/05/15 11:10:55;;;;;;;3.20;0.88;;;;;;;;;;4964789;28;20054;-87
2022/05/15 11:13:46;;;;;;;3.08;1.00;;;;;;;;;;4969920;28;20085;-87
2022/05/15 11:16:13;;;;;;;2.90;0.90;;;;;;;;;;4953596;28;20053;-87
2022/05/15 11:18:47;;;;;;;2.47;0.80;;;;;;;;;;4995449;28;20409;-86
2022/05/15 11:21:46;;;;;;;3.20;1.00;;;;;;;;;;4961150;28;20064;-85
2022/05/15 11:24:28;;;;;;;2.72;0.98;;;;;;;;;;4951905;28;20057;-86
2022/05/15 11:27:07;;;;;;;1.65;0.80;;;;;;;;;;4999308;28;20062;-86
2022/05/15 11:29:41;;;;;;;2.75;0.98;;;;;;;;;;4983467;28;20082;-86
2022/05/15 11:32:28;;;;;;;2.92;1.00;;;;;;;;;;4997007;28;20049;-86
2022/05/15 11:35:17;;;;;;;2.50;0.90;;;;;;;;;;4971359;28;20386;-85
2022/05/15 11:37:57;;;;;;;1.92;0.85;;;;;;;;;;4999577;28;20053;-85
2022/05/15 11:40:37;;;;;;;2.38;0.90;;;;;;;;;;4985923;28;20050;-87
2022/05/15 11:43:28;;;;;;;1.90;0.93;;;;;;;;;;5012737;28;20060;-88
2022/05/15 11:46:09;;;;;;;2.67;0.80;;;;;;;;;;4982640;28;20057;-86
2022/05/15 11:48:37;;;;;;;3.15;0.70;;;;;;;;;;4999090;28;20497;-87
2022/05/15 11:51:14;;;;;;;1.58;0.73;;;;;;;;;;4988699;28;20498;-87
2022/05/15 11:54:03;;;;;;;3.03;0.80;;;;;;;;;;4944900;28;20406;-87
2022/05/15 11:56:51;;;;;;;3.35;0.98;;;;;;;;;;4983938;28;20050;-86
2022/05/15 11:59:24;;;;;;;3.10;0.73;;;;;;;;;;4999600;28;20034;-86
2022/05/15 12:01:52;;;;;;;3.05;0.85;;;;;;;;;;4996102;28;20070;-85
2022/05/15 12:04:25;;;;;;;2.05;1.00;;;;;;;;;;5001629;28;20050;-86
2022/05/15 12:06:56;;;;;;;2.25;0.80;;;;;;;;;;5007617;28;20061;-87
2022/05/15 12:09:41;;;;;;;3.85;1.02;;;;;;;;;;4967224;28;20624;-88
2022/05/15 12:12:23;;;;;;;3.25;1.05;;;;;;;;;;4959451;28;20058;-88
2022/05/15 12:15:06;;;;;;;2.53;0.80;;;;;;;;;;4980592;28;20046;-87
2022/05/15 12:17:39;;;;;;;2.67;0.70;;;;;;;;;;4991318;28;20053;-88
2022/05/15 12:20:15;;;;;;;3.80;0.90;;;;;;;;;;5015331;28;20401;-88
2022/05/15 12:22:53;;;;;;;2.92;0.73;;;;;;;;;;4984274;28;20098;-88
2022/05/15 12:25:30;;;;;;;1.98;0.70;;;;;;;;;;4962458;28;20053;-87
2022/05/15 12:31:12;;;;;;;4.20;0.95;;;;;;;;;;5001196;28;20050;-88
2022/05/15 12:34:17;;;;;;;4.18;0.90;;;;;;;;;;4974002;28;20518;-88
2022/05/15 12:36:53;;;;;;;3.03;0.95;;;;;;;;;;4957631;28;20497;-88
2022/05/15 12:39:28;;;;;;;1.92;0.80;;;;;;;;;;5012932;28;20074;-87
2022/05/15 12:42:06;;;;;;;4.03;0.87;;;;;;;;;;4998837;28;20069;-86
2022/05/15 12:44:38;;;;;;;2.50;0.80;;;;;;;;;;4969593;28;20058;-87
2022/05/15 12:47:09;;;;;;;2.95;1.05;;;;;;;;;;5010454;28;20108;-87
2022/05/15 12:49:43;;;;;;;3.05;1.05;;;;;;;;;;4969648;28;20058;-86
2022/05/15 12:52:31;;;;;;;1.52;0.80;;;;;;;;;;4981400;28;20084;-86
2022/05/15 12:55:08;;;;;;;3.13;1.08;;;;;;;;;;5011459;28;20054;-86
2022/05/15 12:57:47;;;;;;;2.40;0.77;;;;;;;;;;4980901;28;20108;-86
2022/05/15 13:00:22;;;;;;;2.83;1.00;;;;;;;;;;4996180;28;20550;-86
2022/05/15 13:02:57;;;;;;;2.85;0.90;;;;;;;;;;4998996;28;20062;-86
2022/05/15 13:05:32;;;;;;;1.70;0.90;;;;;;;;;;4999243;28;20050;-86
2022/05/15 13:08:08;;;;;;;3.17;1.07;;;;;;;;;;4997527;28;20141;-86
2022/05/15 13:10:43;;;;;;;1.85;0.75;;;;;;;;;;4998686;28;20057;-86
2022/05/15 13:13:25;;;;;;;2.42;0.90;;;;;;;;;;5008156;28;20775;-85
2022/05/15 13:15:55;;;;;;;3.13;0.90;;;;;;;;;;4967865;28;20057;-86
2022/05/15 13:18:26;;;;;;;1.88;0.98;;;;;;;;;;4999783;28;20046;-85
2022/05/15 13:21:05;;;;;;;2.47;0.75;;;;;;;;;;4982450;28;20088;-85
2022/05/15 13:23:45;;;;;;;1.67;0.80;;;;;;;;;;5000439;28;20133;-86
2022/05/15 13:26:21;;;;;;;2.05;0.85;;;;;;;;;;4961816;28;20073;-87
2022/05/15 13:28:49;;;;;;;3.45;1.08;;;;;;;;;;5004766;28;20054;-87
2022/05/15 13:31:17;;;;;;;2.47;0.98;;;;;;;;;;5003030;28;20054;-87
2022/05/15 13:33:45;;;;;;;2.63;1.10;;;;;;;;;;4970794;28;20053;-87
2022/05/15 13:36:15;;;;;;;2.25;0.68;;;;;;;;;;4966308;28;20049;-87
2022/05/15 13:44:39;;;;;;;4.18;0.90;;;;;;;;;;5000956;28;20057;-88
2022/05/15 13:47:10;;;;;;;3.60;0.90;;;;;;;;;;4966758;28;20073;-87
2022/05/15 13:49:41;;;;;;;2.35;0.90;;;;;;;;;;4994772;28;20129;-87
2022/05/15 13:52:31;;;;;;;1.83;0.80;;;;;;;;;;5000705;28;20387;-87
2022/05/15 13:55:09;;;;;;;2.45;0.80;;;;;;;;;;4986487;28;20065;-87
2022/05/15 13:57:57;;;;;;;1.98;1.00;;;;;;;;;;4982930;28;20056;-87
2022/05/15 14:00:31;;;;;;;3.20;1.20;;;;;;;;;;4993463;28;20050;-87
2022/05/15 14:03:01;;;;;;;2.37;0.93;;;;;;;;;;4980549;28;20093;-87
2022/05/15 14:05:32;;;;;;;2.70;0.68;;;;;;;;;;5003609;28;20132;-87
2022/05/15 14:08:14;;;;;;;3.22;1.10;;;;;;;;;;4959976;28;20058;-87
2022/05/15 14:10:41;;;;;;;2.47;1.08;;;;;;;;;;5000387;28;20048;-87
2022/05/15 14:13:10;;;;;;;2.05;0.77;;;;;;;;;;4985580;28;20054;-87
2022/05/15 14:15:48;;;;;;;3.38;0.90;;;;;;;;;;4988057;28;20046;-87
2022/05/15 14:18:34;;;;;;;3.60;0.90;;;;;;;;;;5001677;28;20065;-87
2022/05/15 14:21:23;;;;;;;2.10;0.82;;;;;;;;;;4961050;28;20118;-87
2022/05/15 14:23:52;;;;;;;1.88;0.82;;;;;;;;;;4984513;28;20141;-90
2022/05/15 14:26:22;;;;;;;1.50;0.70;;;;;;;;;;5017640;28;20513;-88
2022/05/15 14:28:50;;;;;;;3.03;1.00;;;;;;;;;;5013300;28;20046;-87
2022/05/15 14:31:22;;;;;;;3.45;1.10;;;;;;;;;;4987164;28;20129;-87
2022/05/15 14:33:51;;;;;;;4.45;1.10;;;;;;;;;;4983082;28;20141;-87
2022/05/15 14:36:21;;;;;;;2.78;0.80;;;;;;;;;;4982528;28;20054;-87
2022/05/15 14:38:49;;;;;;;2.15;0.98;;;;;;;;;;4983953;28;20054;-86
2022/05/15 14:41:18;;;;;;;2.58;0.80;;;;;;;;;;4999713;28;20493;-85
2022/05/15 14:43:45;;;;;;;2.05;0.80;;;;;;;;;;5000060;28;20058;-86
2022/05/15 14:46:16;;;;;;;2.00;0.98;;;;;;;;;;4977972;28;20504;-85
2022/05/15 14:48:47;;;;;;;4.22;1.30;;;;;;;;;;4997756;28;20125;-85
2022/05/15 14:51:21;;;;;;;3.67;1.08;;;;;;;;;;4998098;28;20064;-86
2022/05/15 14:53:51;;;;;;;2.08;0.82;;;;;;;;;;4978852;28;20509;-86
2022/05/15 14:56:20;;;;;;;2.58;1.10;;;;;;;;;;4979985;28;20943;-85
2022/05/15 14:59:05;;;;;;;1.70;0.68;;;;;;;;;;4980366;28;20076;-85
2022/05/15 15:01:34;;;;;;;2.95;0.90;;;;;;;;;;4984166;28;20113;-86
2022/05/15 15:04:01;;;;;;;3.30;1.00;;;;;;;;;;4996923;28;20061;-87
2022/05/15 15:06:29;;;;;;;2.78;1.35;;;;;;;;;;4970774;28;20062;-86
2022/05/15 15:08:57;;;;;;;2.65;0.82;;;;;;;;;;4987041;28;20108;-86
2022/05/15 15:11:31;;;;;;;2.75;1.10;;;;;;;;;;4980655;28;20524;-86
2022/05/15 15:14:06;;;;;;;3.20;0.90;;;;;;;;;;5000653;28;20054;-86
2022/05/15 15:16:38;;;;;;;2.75;0.85;;;;;;;;;;4996506;28;20108;-86
2022/05/15 15:19:05;;;;;;;1.98;0.80;;;;;;;;;;4997004;28;20108;-86
2022/05/15 15:21:34;;;;;;;3.33;1.13;;;;;;;;;;5001708;28;20042;-86
2022/05/15 15:24:01;;;;;;;1.95;0.80;;;;;;;;;;4965461;28;20463;-86
2022/05/15 15:26:29;;;;;;;1.45;0.75;;;;;;;;;;4984958;28;20054;-87
2022/05/15 15:28:57;;;;;;;4.15;1.17;;;;;;;;;;5001167;28;20038;-86
2022/05/15 15:31:30;;;;;;;2.65;0.90;;;;;;;;;;5003155;28;20062;-86
2022/05/15 15:33:58;;;;;;;2.67;0.95;;;;;;;;;;4992111;28;20062;-86
2022/05/15 15:36:25;;;;;;;2.88;1.00;;;;;;;;;;4988316;28;20054;-87
2022/05/15 15:38:53;;;;;;;4.25;1.15;;;;;;;;;;4988694;28;20085;-87
2022/05/15 15:41:31;;;;;;;2.45;0.80;;;;;;;;;;4962132;28;20473;-86
2022/05/15 15:43:59;;;;;;;3.15;1.10;;;;;;;;;;5011075;28;20050;-86